Concepcion, Chile
Current Conditions -  °F | °C
As of 2:00 PM on Monday 22 Dec 2014 (Local Time) from SCIE Reporting Station
Clear Clear  
Wind Chill: 68°   Ceiling: Unl
Heat Index: 68°   Visibility: 6mi
Dew Point: 46°   Wind: 20mph
Humidity: 46%   Direction: 230°SW
Pressure: 30.18"   Gusts: NA
Location:  36.83°S, 73.05°W
Report Text: SCIE 221800Z 23017KT CAVOK 20/08 Q1022
Loading
Personal Weather Stations






























Interactive Weather Map New forecast layout! Learn more

10-Day Weather Forecast

Advertisements
Track Severe Weather on mobile